Queanbeyan, Australia
Current Conditions -  °F | °C
As of 12:00 PM on Sunday 26 Oct 2014 (Local Time) from YSCB Reporting Station
Clear Clear  
Wind Chill: 82°   Ceiling: Unl
Heat Index: 82°   Visibility: 6mi
Dew Point: 32°   Wind: 23mph
Humidity: 16%   Direction: 290°WNW
Pressure: 29.85"   Gusts: NA
Location:  35.35°S, 149.23°E
Report Text: YSCB 260100Z 29020KT CAVOK 28/00 Q1011 NOSIG
Loading
Personal Weather Stations






























Interactive Weather Map
Tropical Storm Tracking
New forecast layout! Learn more

10-Day Weather Forecast

Advertisements
Track Severe Weather on mobile